SKPC/PCR METAR and TAF weather

Enter ICAO airport designator
Station Type Date Time Source
SKPC METAR 2020/04/07 01:00 UTC NOAA

SKPC 070100Z 05010KT 9999 -TSRA BKN015CB SCT070 26/22 A2982


Station Type Date Time Source
SKPC Decoded METAR 2020/04/07 01:00 UTC NOAA

Puerto Carreno / A. Guauquea, Colombia (SKPC) 06-10N 067-30W
Apr 06, 2020 - 09:00 PM EDT / 2020.04.07 0100 UTC
Wind: from the NE (050 degrees) at 12 MPH (10 KT):0
Visibility: greater than 7 mile(s):0
Sky conditions: mostly cloudy
Weather: light rain with thunder; Cumulonimbus clouds observed
Temperature: 78 F (26 C)
Dew Point: 71 F (22 C)
Relative Humidity: 78%
Pressure (altimeter): 29.82 in. Hg (1009 hPa)
ob: SKPC 070100Z 05010KT 9999 -TSRA BKN015CB SCT070 26/22 A2982
cycle: 1

Station Type Date Time Source
SKPC TAF UTC NOAA

Error!

Example: see airport list